sensor_id;sensor_type;location;lat;lon;timestamp;P1;durP1;ratioP1;P2;durP2;ratioP2
16119;SDS011;12670;53.502;10.252;2023-02-01T00:02:35;20.07;;;3.70;;
16119;SDS011;12670;53.502;10.252;2023-02-01T00:05:42;34.10;;;4.03;;
16119;SDS011;12670;53.502;10.252;2023-02-01T00:08:45;18.93;;;3.37;;
16119;SDS011;12670;53.502;10.252;2023-02-01T00:11:47;24.80;;;3.47;;
16119;SDS011;12670;53.502;10.252;2023-02-01T00:14:50;24.23;;;3.93;;
16119;SDS011;12670;53.502;10.252;2023-02-01T00:17:53;19.20;;;3.33;;
16119;SDS011;12670;53.502;10.252;2023-02-01T00:20:58;29.23;;;4.13;;
16119;SDS011;12670;53.502;10.252;2023-02-01T00:24:00;26.37;;;4.37;;
16119;SDS011;12670;53.502;10.252;2023-02-01T00:27:03;30.40;;;3.90;;
16119;SDS011;12670;53.502;10.252;2023-02-01T00:30:06;22.53;;;3.93;;
16119;SDS011;12670;53.502;10.252;2023-02-01T00:33:10;29.10;;;5.27;;
16119;SDS011;12670;53.502;10.252;2023-02-01T00:36:14;31.00;;;5.03;;
16119;SDS011;12670;53.502;10.252;2023-02-01T00:39:17;32.30;;;4.37;;
16119;SDS011;12670;53.502;10.252;2023-02-01T00:42:20;24.17;;;3.80;;
16119;SDS011;12670;53.502;10.252;2023-02-01T00:45:22;32.77;;;4.90;;
16119;SDS011;12670;53.502;10.252;2023-02-01T00:48:25;36.97;;;4.67;;
16119;SDS011;12670;53.502;10.252;2023-02-01T00:51:30;29.70;;;5.20;;
16119;SDS011;12670;53.502;10.252;2023-02-01T00:54:33;33.60;;;4.50;;
16119;SDS011;12670;53.502;10.252;2023-02-01T00:57:36;24.60;;;3.93;;
16119;SDS011;12670;53.502;10.252;2023-02-01T01:00:39;35.80;;;5.10;;
16119;SDS011;12670;53.502;10.252;2023-02-01T01:03:43;28.20;;;4.43;;
16119;SDS011;12670;53.502;10.252;2023-02-01T01:06:48;24.37;;;4.37;;
16119;SDS011;12670;53.502;10.252;2023-02-01T01:09:51;37.50;;;5.30;;
16119;SDS011;12670;53.502;10.252;2023-02-01T01:12:54;36.27;;;4.40;;
16119;SDS011;12670;53.502;10.252;2023-02-01T01:15:59;32.80;;;5.37;;
16119;SDS011;12670;53.502;10.252;2023-02-01T01:19:03;32.30;;;5.10;;
16119;SDS011;12670;53.502;10.252;2023-02-01T01:22:08;33.97;;;4.90;;
16119;SDS011;12670;53.502;10.252;2023-02-01T01:25:11;27.10;;;4.43;;
16119;SDS011;12670;53.502;10.252;2023-02-01T01:28:13;31.63;;;4.97;;
16119;SDS011;12670;53.502;10.252;2023-02-01T01:31:16;35.27;;;5.13;;
16119;SDS011;12670;53.502;10.252;2023-02-01T01:34:20;41.20;;;5.20;;
16119;SDS011;12670;53.502;10.252;2023-02-01T01:37:24;40.70;;;6.13;;
16119;SDS011;12670;53.502;10.252;2023-02-01T01:40:27;32.90;;;5.40;;
16119;SDS011;12670;53.502;10.252;2023-02-01T01:43:51;35.77;;;5.33;;
16119;SDS011;12670;53.502;10.252;2023-02-01T01:46:56;37.03;;;5.77;;
16119;SDS011;12670;53.502;10.252;2023-02-01T01:49:59;32.33;;;5.03;;
16119;SDS011;12670;53.502;10.252;2023-02-01T01:53:04;36.57;;;5.27;;
16119;SDS011;12670;53.502;10.252;2023-02-01T01:56:10;38.53;;;4.87;;
16119;SDS011;12670;53.502;10.252;2023-02-01T01:59:13;39.90;;;5.80;;
16119;SDS011;12670;53.502;10.252;2023-02-01T02:02:17;40.90;;;5.30;;
16119;SDS011;12670;53.502;10.252;2023-02-01T02:05:20;29.97;;;5.30;;
16119;SDS011;12670;53.502;10.252;2023-02-01T02:08:25;33.50;;;5.13;;
16119;SDS011;12670;53.502;10.252;2023-02-01T02:11:28;42.03;;;5.80;;
16119;SDS011;12670;53.502;10.252;2023-02-01T02:14:31;31.60;;;5.07;;
16119;SDS011;12670;53.502;10.252;2023-02-01T02:17:36;37.33;;;5.50;;
16119;SDS011;12670;53.502;10.252;2023-02-01T02:20:52;30.70;;;5.30;;
16119;SDS011;12670;53.502;10.252;2023-02-01T02:27:58;28.63;;;5.17;;
16119;SDS011;12670;53.502;10.252;2023-02-01T02:31:10;41.90;;;5.50;;
16119;SDS011;12670;53.502;10.252;2023-02-01T02:34:29;35.00;;;5.07;;
16119;SDS011;12670;53.502;10.252;2023-02-01T02:37:38;46.13;;;5.70;;
16119;SDS011;12670;53.502;10.252;2023-02-01T02:40:46;40.47;;;5.53;;
16119;SDS011;12670;53.502;10.252;2023-02-01T02:43:55;34.27;;;6.03;;
16119;SDS011;12670;53.502;10.252;2023-02-01T02:47:21;32.77;;;5.20;;
16119;SDS011;12670;53.502;10.252;2023-02-01T02:50:32;38.10;;;5.10;;
16119;SDS011;12670;53.502;10.252;2023-02-01T02:53:57;32.63;;;5.50;;
16119;SDS011;12670;53.502;10.252;2023-02-01T02:57:20;45.83;;;5.97;;
16119;SDS011;12670;53.502;10.252;2023-02-01T03:00:44;38.03;;;5.23;;
16119;SDS011;12670;53.502;10.252;2023-02-01T03:04:05;29.20;;;5.43;;
16119;SDS011;12670;53.502;10.252;2023-02-01T03:07:13;37.80;;;5.37;;
16119;SDS011;12670;53.502;10.252;2023-02-01T03:10:18;43.13;;;4.83;;
16119;SDS011;12670;53.502;10.252;2023-02-01T03:13:31;42.63;;;5.97;;
16119;SDS011;12670;53.502;10.252;2023-02-01T03:16:40;37.03;;;4.97;;
16119;SDS011;12670;53.502;10.252;2023-02-01T03:19:46;32.93;;;5.20;;
16119;SDS011;12670;53.502;10.252;2023-02-01T03:22:54;38.07;;;4.87;;
16119;SDS011;12670;53.502;10.252;2023-02-01T03:25:59;43.03;;;5.53;;
16119;SDS011;12670;53.502;10.252;2023-02-01T03:29:05;29.27;;;4.87;;
16119;SDS011;12670;53.502;10.252;2023-02-01T03:32:14;33.13;;;5.33;;
16119;SDS011;12670;53.502;10.252;2023-02-01T03:35:16;29.50;;;4.37;;
16119;SDS011;12670;53.502;10.252;2023-02-01T03:38:24;29.10;;;4.20;;
16119;SDS011;12670;53.502;10.252;2023-02-01T03:41:34;30.80;;;4.73;;
16119;SDS011;12670;53.502;10.252;2023-02-01T03:44:41;25.73;;;4.23;;
16119;SDS011;12670;53.502;10.252;2023-02-01T03:47:49;22.10;;;3.37;;
16119;SDS011;12670;53.502;10.252;2023-02-01T03:50:57;21.23;;;3.23;;
16119;SDS011;12670;53.502;10.252;2023-02-01T03:54:05;24.90;;;3.00;;
16119;SDS011;12670;53.502;10.252;2023-02-01T03:57:12;16.93;;;2.60;;
16119;SDS011;12670;53.502;10.252;2023-02-01T04:00:18;8.57;;;1.90;;
16119;SDS011;12670;53.502;10.252;2023-02-01T04:03:24;9.27;;;1.97;;
16119;SDS011;12670;53.502;10.252;2023-02-01T04:06:28;15.33;;;1.93;;
16119;SDS011;12670;53.502;10.252;2023-02-01T04:09:32;14.63;;;2.37;;
16119;SDS011;12670;53.502;10.252;2023-02-01T04:12:35;9.70;;;1.87;;
16119;SDS011;12670;53.502;10.252;2023-02-01T04:15:38;15.40;;;2.27;;
16119;SDS011;12670;53.502;10.252;2023-02-01T04:18:41;15.67;;;2.97;;
16119;SDS011;12670;53.502;10.252;2023-02-01T04:21:43;25.13;;;3.23;;
16119;SDS011;12670;53.502;10.252;2023-02-01T04:24:47;14.67;;;2.90;;
16119;SDS011;12670;53.502;10.252;2023-02-01T04:27:50;14.70;;;2.57;;
16119;SDS011;12670;53.502;10.252;2023-02-01T04:30:53;24.70;;;4.10;;
16119;SDS011;12670;53.502;10.252;2023-02-01T04:33:56;22.67;;;3.10;;
16119;SDS011;12670;53.502;10.252;2023-02-01T04:36:59;23.77;;;3.43;;
16119;SDS011;12670;53.502;10.252;2023-02-01T04:40:04;18.80;;;3.13;;
16119;SDS011;12670;53.502;10.252;2023-02-01T04:43:07;11.10;;;2.80;;
16119;SDS011;12670;53.502;10.252;2023-02-01T04:46:10;18.40;;;3.23;;
16119;SDS011;12670;53.502;10.252;2023-02-01T04:49:13;20.10;;;3.37;;
16119;SDS011;12670;53.502;10.252;2023-02-01T04:52:16;16.93;;;3.00;;
16119;SDS011;12670;53.502;10.252;2023-02-01T04:55:20;16.00;;;2.80;;
16119;SDS011;12670;53.502;10.252;2023-02-01T04:58:23;17.27;;;3.03;;
16119;SDS011;12670;53.502;10.252;2023-02-01T05:01:26;10.87;;;2.63;;
16119;SDS011;12670;53.502;10.252;2023-02-01T05:04:28;17.33;;;3.03;;
16119;SDS011;12670;53.502;10.252;2023-02-01T05:07:31;13.77;;;2.10;;
16119;SDS011;12670;53.502;10.252;2023-02-01T05:10:35;12.37;;;2.50;;
16119;SDS011;12670;53.502;10.252;2023-02-01T05:13:38;12.93;;;2.27;;
16119;SDS011;12670;53.502;10.252;2023-02-01T05:16:49;12.27;;;2.40;;
16119;SDS011;12670;53.502;10.252;2023-02-01T05:19:51;15.90;;;2.20;;
16119;SDS011;12670;53.502;10.252;2023-02-01T05:22:54;10.13;;;1.90;;
16119;SDS011;12670;53.502;10.252;2023-02-01T05:26:01;7.30;;;1.53;;
16119;SDS011;12670;53.502;10.252;2023-02-01T05:29:04;5.67;;;1.43;;
16119;SDS011;12670;53.502;10.252;2023-02-01T05:32:09;8.57;;;1.30;;
16119;SDS011;12670;53.502;10.252;2023-02-01T05:35:22;4.90;;;1.17;;
16119;SDS011;12670;53.502;10.252;2023-02-01T05:38:25;5.77;;;1.00;;
16119;SDS011;12670;53.502;10.252;2023-02-01T05:41:29;3.33;;;0.90;;
16119;SDS011;12670;53.502;10.252;2023-02-01T05:44:32;3.80;;;0.80;;
16119;SDS011;12670;53.502;10.252;2023-02-01T05:47:34;2.77;;;1.20;;
16119;SDS011;12670;53.502;10.252;2023-02-01T05:50:37;2.03;;;0.87;;
16119;SDS011;12670;53.502;10.252;2023-02-01T05:53:40;5.30;;;1.30;;
16119;SDS011;12670;53.502;10.252;2023-02-01T05:56:44;5.27;;;1.00;;
16119;SDS011;12670;53.502;10.252;2023-02-01T05:59:47;3.30;;;0.93;;
16119;SDS011;12670;53.502;10.252;2023-02-01T06:02:49;4.87;;;1.03;;
16119;SDS011;12670;53.502;10.252;2023-02-01T06:05:52;3.17;;;0.97;;
16119;SDS011;12670;53.502;10.252;2023-02-01T06:08:55;5.17;;;1.43;;
16119;SDS011;12670;53.502;10.252;2023-02-01T06:11:59;5.20;;;1.30;;
16119;SDS011;12670;53.502;10.252;2023-02-01T06:15:02;2.83;;;1.33;;
16119;SDS011;12670;53.502;10.252;2023-02-01T06:18:05;1.77;;;0.83;;
16119;SDS011;12670;53.502;10.252;2023-02-01T06:21:08;4.63;;;1.50;;
16119;SDS011;12670;53.502;10.252;2023-02-01T06:24:10;9.30;;;1.83;;
16119;SDS011;12670;53.502;10.252;2023-02-01T06:27:15;5.33;;;1.30;;
16119;SDS011;12670;53.502;10.252;2023-02-01T06:30:17;4.90;;;1.33;;
16119;SDS011;12670;53.502;10.252;2023-02-01T06:33:20;2.40;;;0.90;;
16119;SDS011;12670;53.502;10.252;2023-02-01T06:36:23;4.07;;;1.43;;
16119;SDS011;12670;53.502;10.252;2023-02-01T06:39:26;3.47;;;1.27;;
16119;SDS011;12670;53.502;10.252;2023-02-01T06:42:30;3.23;;;1.20;;
16119;SDS011;12670;53.502;10.252;2023-02-01T06:45:33;3.67;;;1.23;;
16119;SDS011;12670;53.502;10.252;2023-02-01T06:48:36;5.63;;;1.20;;
16119;SDS011;12670;53.502;10.252;2023-02-01T06:51:38;4.43;;;1.37;;
16119;SDS011;12670;53.502;10.252;2023-02-01T06:54:41;7.87;;;1.50;;
16119;SDS011;12670;53.502;10.252;2023-02-01T06:57:45;11.00;;;2.17;;
16119;SDS011;12670;53.502;10.252;2023-02-01T07:00:48;9.83;;;2.00;;
16119;SDS011;12670;53.502;10.252;2023-02-01T07:03:51;10.27;;;2.40;;
16119;SDS011;12670;53.502;10.252;2023-02-01T07:06:54;9.97;;;2.23;;
16119;SDS011;12670;53.502;10.252;2023-02-01T07:09:57;12.37;;;2.37;;
16119;SDS011;12670;53.502;10.252;2023-02-01T07:13:01;15.53;;;2.70;;
16119;SDS011;12670;53.502;10.252;2023-02-01T07:16:04;18.37;;;2.53;;
16119;SDS011;12670;53.502;10.252;2023-02-01T07:19:08;11.93;;;2.47;;
16119;SDS011;12670;53.502;10.252;2023-02-01T07:22:11;13.97;;;2.87;;
16119;SDS011;12670;53.502;10.252;2023-02-01T07:25:14;19.97;;;2.87;;
16119;SDS011;12670;53.502;10.252;2023-02-01T07:28:18;24.07;;;3.13;;
16119;SDS011;12670;53.502;10.252;2023-02-01T07:31:20;17.07;;;2.43;;
16119;SDS011;12670;53.502;10.252;2023-02-01T07:34:26;22.37;;;3.33;;
16119;SDS011;12670;53.502;10.252;2023-02-01T07:37:29;20.63;;;3.20;;
16119;SDS011;12670;53.502;10.252;2023-02-01T07:40:32;24.40;;;4.43;;
16119;SDS011;12670;53.502;10.252;2023-02-01T07:43:36;28.17;;;3.73;;
16119;SDS011;12670;53.502;10.252;2023-02-01T07:46:39;23.17;;;4.20;;
16119;SDS011;12670;53.502;10.252;2023-02-01T07:49:41;29.70;;;3.73;;
16119;SDS011;12670;53.502;10.252;2023-02-01T07:52:44;8.33;;;2.20;;
16119;SDS011;12670;53.502;10.252;2023-02-01T07:55:47;14.03;;;2.20;;
16119;SDS011;12670;53.502;10.252;2023-02-01T07:58:51;19.17;;;3.13;;
16119;SDS011;12670;53.502;10.252;2023-02-01T08:01:55;15.03;;;2.57;;
16119;SDS011;12670;53.502;10.252;2023-02-01T08:04:58;16.43;;;2.83;;
16119;SDS011;12670;53.502;10.252;2023-02-01T08:08:01;30.67;;;4.03;;
16119;SDS011;12670;53.502;10.252;2023-02-01T08:11:04;32.33;;;4.53;;
16119;SDS011;12670;53.502;10.252;2023-02-01T08:14:09;27.53;;;4.73;;
16119;SDS011;12670;53.502;10.252;2023-02-01T08:17:12;35.03;;;5.30;;
16119;SDS011;12670;53.502;10.252;2023-02-01T08:20:14;28.23;;;4.53;;
16119;SDS011;12670;53.502;10.252;2023-02-01T08:23:17;35.40;;;4.50;;
16119;SDS011;12670;53.502;10.252;2023-02-01T08:26:20;29.77;;;4.73;;
16119;SDS011;12670;53.502;10.252;2023-02-01T08:29:26;35.00;;;4.73;;
16119;SDS011;12670;53.502;10.252;2023-02-01T08:32:28;42.97;;;5.50;;
16119;SDS011;12670;53.502;10.252;2023-02-01T08:35:31;32.53;;;5.40;;
16119;SDS011;12670;53.502;10.252;2023-02-01T08:38:44;33.07;;;4.87;;
16119;SDS011;12670;53.502;10.252;2023-02-01T08:41:47;27.17;;;4.80;;
16119;SDS011;12670;53.502;10.252;2023-02-01T08:45:11;44.80;;;5.30;;
16119;SDS011;12670;53.502;10.252;2023-02-01T08:48:14;27.77;;;4.90;;
16119;SDS011;12670;53.502;10.252;2023-02-01T08:51:18;37.43;;;5.40;;
16119;SDS011;12670;53.502;10.252;2023-02-01T08:54:22;27.10;;;3.60;;
16119;SDS011;12670;53.502;10.252;2023-02-01T08:57:25;35.23;;;5.40;;
16119;SDS011;12670;53.502;10.252;2023-02-01T09:00:29;32.70;;;4.50;;
16119;SDS011;12670;53.502;10.252;2023-02-01T09:03:32;35.40;;;5.37;;
16119;SDS011;12670;53.502;10.252;2023-02-01T09:06:35;40.17;;;5.43;;
16119;SDS011;12670;53.502;10.252;2023-02-01T09:09:37;34.23;;;5.30;;
16119;SDS011;12670;53.502;10.252;2023-02-01T09:12:40;43.00;;;4.80;;
16119;SDS011;12670;53.502;10.252;2023-02-01T09:15:44;37.33;;;5.00;;
16119;SDS011;12670;53.502;10.252;2023-02-01T09:18:48;37.20;;;5.10;;
16119;SDS011;12670;53.502;10.252;2023-02-01T09:22:08;31.47;;;4.60;;
16119;SDS011;12670;53.502;10.252;2023-02-01T09:25:10;31.03;;;3.87;;
16119;SDS011;12670;53.502;10.252;2023-02-01T09:28:13;28.20;;;5.23;;
16119;SDS011;12670;53.502;10.252;2023-02-01T09:31:18;31.80;;;4.87;;
16119;SDS011;12670;53.502;10.252;2023-02-01T09:34:21;27.97;;;4.37;;
16119;SDS011;12670;53.502;10.252;2023-02-01T09:37:24;29.00;;;4.60;;
16119;SDS011;12670;53.502;10.252;2023-02-01T09:40:26;34.13;;;5.00;;
16119;SDS011;12670;53.502;10.252;2023-02-01T09:43:33;31.73;;;4.70;;
16119;SDS011;12670;53.502;10.252;2023-02-01T09:46:45;32.63;;;4.17;;
16119;SDS011;12670;53.502;10.252;2023-02-01T09:49:50;35.73;;;5.23;;
16119;SDS011;12670;53.502;10.252;2023-02-01T09:52:59;22.37;;;4.03;;
16119;SDS011;12670;53.502;10.252;2023-02-01T09:56:05;25.97;;;3.60;;
16119;SDS011;12670;53.502;10.252;2023-02-01T09:59:15;29.23;;;4.77;;
16119;SDS011;12670;53.502;10.252;2023-02-01T10:02:27;26.53;;;3.97;;
16119;SDS011;12670;53.502;10.252;2023-02-01T10:05:38;19.37;;;3.30;;
16119;SDS011;12670;53.502;10.252;2023-02-01T10:08:59;26.80;;;4.70;;
16119;SDS011;12670;53.502;10.252;2023-02-01T10:12:23;29.07;;;4.50;;
16119;SDS011;12670;53.502;10.252;2023-02-01T10:15:44;24.73;;;4.13;;
16119;SDS011;12670;53.502;10.252;2023-02-01T10:19:07;26.93;;;4.30;;
16119;SDS011;12670;53.502;10.252;2023-02-01T10:22:27;20.90;;;4.10;;
16119;SDS011;12670;53.502;10.252;2023-02-01T10:25:59;24.17;;;4.00;;
16119;SDS011;12670;53.502;10.252;2023-02-01T10:29:18;27.30;;;4.10;;
16119;SDS011;12670;53.502;10.252;2023-02-01T10:32:23;24.67;;;4.10;;
16119;SDS011;12670;53.502;10.252;2023-02-01T10:35:33;28.27;;;4.23;;
16119;SDS011;12670;53.502;10.252;2023-02-01T10:38:39;21.53;;;4.17;;
16119;SDS011;12670;53.502;10.252;2023-02-01T10:41:44;26.97;;;4.33;;
16119;SDS011;12670;53.502;10.252;2023-02-01T10:44:47;24.93;;;3.57;;
16119;SDS011;12670;53.502;10.252;2023-02-01T10:47:51;24.20;;;4.47;;
16119;SDS011;12670;53.502;10.252;2023-02-01T10:50:58;28.53;;;4.10;;
16119;SDS011;12670;53.502;10.252;2023-02-01T10:54:03;31.53;;;4.20;;
16119;SDS011;12670;53.502;10.252;2023-02-01T10:57:20;26.07;;;3.47;;
16119;SDS011;12670;53.502;10.252;2023-02-01T11:00:25;29.00;;;3.77;;
16119;SDS011;12670;53.502;10.252;2023-02-01T11:03:36;21.23;;;3.23;;
16119;SDS011;12670;53.502;10.252;2023-02-01T11:06:43;19.87;;;3.63;;
16119;SDS011;12670;53.502;10.252;2023-02-01T11:09:48;22.83;;;3.80;;
16119;SDS011;12670;53.502;10.252;2023-02-01T11:12:53;30.43;;;3.73;;
16119;SDS011;12670;53.502;10.252;2023-02-01T11:15:57;25.90;;;4.13;;
16119;SDS011;12670;53.502;10.252;2023-02-01T11:19:00;23.50;;;3.23;;
16119;SDS011;12670;53.502;10.252;2023-02-01T11:22:04;26.13;;;4.37;;
16119;SDS011;12670;53.502;10.252;2023-02-01T11:25:09;24.90;;;3.60;;
16119;SDS011;12670;53.502;10.252;2023-02-01T11:28:12;25.70;;;3.70;;
16119;SDS011;12670;53.502;10.252;2023-02-01T11:31:17;24.50;;;3.83;;
16119;SDS011;12670;53.502;10.252;2023-02-01T11:34:21;34.60;;;4.43;;
16119;SDS011;12670;53.502;10.252;2023-02-01T11:37:29;26.10;;;3.47;;
16119;SDS011;12670;53.502;10.252;2023-02-01T11:40:36;27.13;;;4.27;;
16119;SDS011;12670;53.502;10.252;2023-02-01T11:43:50;22.47;;;3.67;;
16119;SDS011;12670;53.502;10.252;2023-02-01T11:46:54;26.37;;;4.17;;
16119;SDS011;12670;53.502;10.252;2023-02-01T11:49:57;33.87;;;4.60;;
16119;SDS011;12670;53.502;10.252;2023-02-01T11:53:06;29.00;;;4.13;;
16119;SDS011;12670;53.502;10.252;2023-02-01T11:56:23;29.03;;;4.57;;
16119;SDS011;12670;53.502;10.252;2023-02-01T11:59:35;22.50;;;2.93;;
16119;SDS011;12670;53.502;10.252;2023-02-01T12:03:19;26.03;;;3.20;;
16119;SDS011;12670;53.502;10.252;2023-02-01T12:06:41;18.13;;;3.37;;
16119;SDS011;12670;53.502;10.252;2023-02-01T12:09:57;21.43;;;3.80;;
16119;SDS011;12670;53.502;10.252;2023-02-01T12:13:14;17.50;;;2.80;;
16119;SDS011;12670;53.502;10.252;2023-02-01T12:16:27;16.00;;;3.77;;
16119;SDS011;12670;53.502;10.252;2023-02-01T12:19:42;15.73;;;2.60;;
16119;SDS011;12670;53.502;10.252;2023-02-01T12:23:01;15.47;;;2.53;;
16119;SDS011;12670;53.502;10.252;2023-02-01T12:26:26;10.67;;;2.27;;
16119;SDS011;12670;53.502;10.252;2023-02-01T12:29:48;17.83;;;2.07;;
16119;SDS011;12670;53.502;10.252;2023-02-01T12:33:04;9.20;;;2.27;;
16119;SDS011;12670;53.502;10.252;2023-02-01T12:36:16;15.00;;;2.20;;
16119;SDS011;12670;53.502;10.252;2023-02-01T12:39:24;13.10;;;2.27;;
16119;SDS011;12670;53.502;10.252;2023-02-01T12:42:36;22.13;;;2.33;;
16119;SDS011;12670;53.502;10.252;2023-02-01T12:45:42;15.23;;;2.87;;
16119;SDS011;12670;53.502;10.252;2023-02-01T12:48:53;13.77;;;2.27;;
16119;SDS011;12670;53.502;10.252;2023-02-01T12:52:00;10.03;;;2.27;;
16119;SDS011;12670;53.502;10.252;2023-02-01T12:55:09;4.30;;;1.27;;
16119;SDS011;12670;53.502;10.252;2023-02-01T12:58:21;3.40;;;1.20;;
16119;SDS011;12670;53.502;10.252;2023-02-01T13:01:30;3.37;;;0.90;;
16119;SDS011;12670;53.502;10.252;2023-02-01T13:04:38;3.27;;;1.50;;
16119;SDS011;12670;53.502;10.252;2023-02-01T13:07:48;3.47;;;1.10;;
16119;SDS011;12670;53.502;10.252;2023-02-01T13:10:57;2.87;;;1.20;;
16119;SDS011;12670;53.502;10.252;2023-02-01T13:14:10;4.63;;;1.23;;
16119;SDS011;12670;53.502;10.252;2023-02-01T13:17:22;3.10;;;1.00;;
16119;SDS011;12670;53.502;10.252;2023-02-01T13:20:29;2.27;;;0.90;;
16119;SDS011;12670;53.502;10.252;2023-02-01T13:23:35;2.57;;;0.80;;
16119;SDS011;12670;53.502;10.252;2023-02-01T13:26:40;2.43;;;0.80;;
16119;SDS011;12670;53.502;10.252;2023-02-01T13:29:46;1.77;;;0.80;;
16119;SDS011;12670;53.502;10.252;2023-02-01T13:36:38;2.00;;;0.70;;
16119;SDS011;12670;53.502;10.252;2023-02-01T13:39:52;1.50;;;0.80;;
16119;SDS011;12670;53.502;10.252;2023-02-01T13:43:11;2.50;;;0.70;;
16119;SDS011;12670;53.502;10.252;2023-02-01T13:46:18;1.63;;;1.00;;
16119;SDS011;12670;53.502;10.252;2023-02-01T13:49:22;2.17;;;1.00;;
16119;SDS011;12670;53.502;10.252;2023-02-01T13:52:32;2.17;;;0.90;;
16119;SDS011;12670;53.502;10.252;2023-02-01T13:55:38;3.17;;;1.20;;
16119;SDS011;12670;53.502;10.252;2023-02-01T13:58:44;3.43;;;0.90;;
16119;SDS011;12670;53.502;10.252;2023-02-01T14:01:49;6.30;;;1.53;;
16119;SDS011;12670;53.502;10.252;2023-02-01T14:04:53;3.20;;;0.90;;
16119;SDS011;12670;53.502;10.252;2023-02-01T14:08:02;4.73;;;1.10;;
16119;SDS011;12670;53.502;10.252;2023-02-01T14:14:39;2.90;;;1.00;;
16119;SDS011;12670;53.502;10.252;2023-02-01T14:17:44;4.77;;;1.23;;
16119;SDS011;12670;53.502;10.252;2023-02-01T14:20:47;7.90;;;1.17;;
16119;SDS011;12670;53.502;10.252;2023-02-01T14:23:56;5.43;;;1.10;;
16119;SDS011;12670;53.502;10.252;2023-02-01T14:27:01;4.53;;;1.30;;
16119;SDS011;12670;53.502;10.252;2023-02-01T14:30:18;7.33;;;1.97;;
16119;SDS011;12670;53.502;10.252;2023-02-01T14:33:24;6.20;;;2.00;;
16119;SDS011;12670;53.502;10.252;2023-02-01T14:36:38;6.90;;;1.87;;
16119;SDS011;12670;53.502;10.252;2023-02-01T14:39:50;7.27;;;1.87;;
16119;SDS011;12670;53.502;10.252;2023-02-01T14:42:56;8.13;;;1.90;;
16119;SDS011;12670;53.502;10.252;2023-02-01T14:45:59;6.43;;;1.47;;
16119;SDS011;12670;53.502;10.252;2023-02-01T14:49:05;10.37;;;2.10;;
16119;SDS011;12670;53.502;10.252;2023-02-01T14:52:09;7.77;;;1.57;;
16119;SDS011;12670;53.502;10.252;2023-02-01T14:55:17;8.23;;;1.40;;
16119;SDS011;12670;53.502;10.252;2023-02-01T14:58:27;7.23;;;1.53;;
16119;SDS011;12670;53.502;10.252;2023-02-01T15:01:36;8.43;;;1.80;;
16119;SDS011;12670;53.502;10.252;2023-02-01T15:04:42;7.20;;;1.83;;
16119;SDS011;12670;53.502;10.252;2023-02-01T15:07:45;12.57;;;1.80;;
16119;SDS011;12670;53.502;10.252;2023-02-01T15:10:48;13.63;;;1.83;;
16119;SDS011;12670;53.502;10.252;2023-02-01T15:13:54;9.20;;;1.90;;
16119;SDS011;12670;53.502;10.252;2023-02-01T15:16:58;10.97;;;1.83;;
16119;SDS011;12670;53.502;10.252;2023-02-01T15:20:03;13.67;;;2.00;;
16119;SDS011;12670;53.502;10.252;2023-02-01T15:23:16;19.23;;;2.40;;
16119;SDS011;12670;53.502;10.252;2023-02-01T15:26:26;18.53;;;2.47;;
16119;SDS011;12670;53.502;10.252;2023-02-01T15:29:30;13.17;;;2.23;;
16119;SDS011;12670;53.502;10.252;2023-02-01T15:32:34;21.03;;;3.13;;
16119;SDS011;12670;53.502;10.252;2023-02-01T15:35:41;16.83;;;2.60;;
16119;SDS011;12670;53.502;10.252;2023-02-01T15:38:45;17.83;;;2.77;;
16119;SDS011;12670;53.502;10.252;2023-02-01T15:41:52;17.37;;;2.97;;
16119;SDS011;12670;53.502;10.252;2023-02-01T15:44:57;18.83;;;3.10;;
16119;SDS011;12670;53.502;10.252;2023-02-01T15:47:59;17.37;;;2.63;;
16119;SDS011;12670;53.502;10.252;2023-02-01T15:51:04;12.77;;;2.47;;
16119;SDS011;12670;53.502;10.252;2023-02-01T15:54:07;17.37;;;2.60;;
16119;SDS011;12670;53.502;10.252;2023-02-01T15:57:21;16.80;;;2.87;;
16119;SDS011;12670;53.502;10.252;2023-02-01T16:00:31;24.00;;;3.30;;
16119;SDS011;12670;53.502;10.252;2023-02-01T16:03:43;24.03;;;2.90;;
16119;SDS011;12670;53.502;10.252;2023-02-01T16:06:51;10.20;;;2.17;;
16119;SDS011;12670;53.502;10.252;2023-02-01T16:09:56;16.57;;;2.90;;
16119;SDS011;12670;53.502;10.252;2023-02-01T16:13:00;21.07;;;2.80;;
16119;SDS011;12670;53.502;10.252;2023-02-01T16:16:03;19.37;;;3.40;;
16119;SDS011;12670;53.502;10.252;2023-02-01T16:19:09;14.60;;;2.80;;
16119;SDS011;12670;53.502;10.252;2023-02-01T16:22:13;21.87;;;3.17;;
16119;SDS011;12670;53.502;10.252;2023-02-01T16:25:16;19.27;;;3.17;;
16119;SDS011;12670;53.502;10.252;2023-02-01T16:28:18;20.30;;;3.33;;
16119;SDS011;12670;53.502;10.252;2023-02-01T16:31:22;24.77;;;3.83;;
16119;SDS011;12670;53.502;10.252;2023-02-01T16:34:29;25.90;;;3.20;;
16119;SDS011;12670;53.502;10.252;2023-02-01T16:37:34;16.53;;;3.67;;
16119;SDS011;12670;53.502;10.252;2023-02-01T16:40:37;20.97;;;3.83;;
16119;SDS011;12670;53.502;10.252;2023-02-01T16:43:40;19.80;;;3.07;;
16119;SDS011;12670;53.502;10.252;2023-02-01T16:46:44;21.53;;;3.33;;
16119;SDS011;12670;53.502;10.252;2023-02-01T16:49:48;17.30;;;3.00;;
16119;SDS011;12670;53.502;10.252;2023-02-01T16:52:52;20.43;;;3.77;;
16119;SDS011;12670;53.502;10.252;2023-02-01T16:55:55;26.03;;;3.33;;
16119;SDS011;12670;53.502;10.252;2023-02-01T16:58:58;25.30;;;3.90;;
16119;SDS011;12670;53.502;10.252;2023-02-01T17:02:02;29.23;;;4.03;;
16119;SDS011;12670;53.502;10.252;2023-02-01T17:05:05;25.37;;;3.90;;
16119;SDS011;12670;53.502;10.252;2023-02-01T17:08:10;33.63;;;4.60;;
16119;SDS011;12670;53.502;10.252;2023-02-01T17:11:16;21.87;;;3.73;;
16119;SDS011;12670;53.502;10.252;2023-02-01T17:14:20;36.90;;;4.57;;
16119;SDS011;12670;53.502;10.252;2023-02-01T17:17:23;34.63;;;5.23;;
16119;SDS011;12670;53.502;10.252;2023-02-01T17:20:39;29.53;;;4.87;;
16119;SDS011;12670;53.502;10.252;2023-02-01T17:23:43;26.97;;;4.40;;
16119;SDS011;12670;53.502;10.252;2023-02-01T17:26:46;37.33;;;6.03;;
16119;SDS011;12670;53.502;10.252;2023-02-01T17:29:50;31.13;;;4.80;;
16119;SDS011;12670;53.502;10.252;2023-02-01T17:32:54;33.47;;;4.73;;
16119;SDS011;12670;53.502;10.252;2023-02-01T17:35:57;36.40;;;5.27;;
16119;SDS011;12670;53.502;10.252;2023-02-01T17:39:01;37.63;;;5.93;;
16119;SDS011;12670;53.502;10.252;2023-02-01T17:42:08;28.53;;;4.73;;
16119;SDS011;12670;53.502;10.252;2023-02-01T17:45:20;33.33;;;5.90;;
16119;SDS011;12670;53.502;10.252;2023-02-01T17:48:28;44.10;;;5.23;;
16119;SDS011;12670;53.502;10.252;2023-02-01T17:51:31;39.27;;;4.93;;
16119;SDS011;12670;53.502;10.252;2023-02-01T17:54:43;48.20;;;6.50;;
16119;SDS011;12670;53.502;10.252;2023-02-01T17:57:47;35.07;;;5.10;;
16119;SDS011;12670;53.502;10.252;2023-02-01T18:00:50;29.27;;;4.77;;
16119;SDS011;12670;53.502;10.252;2023-02-01T18:03:53;37.90;;;5.47;;
16119;SDS011;12670;53.502;10.252;2023-02-01T18:06:56;28.10;;;4.97;;
16119;SDS011;12670;53.502;10.252;2023-02-01T18:10:00;36.83;;;5.13;;
16119;SDS011;12670;53.502;10.252;2023-02-01T18:13:03;33.40;;;4.93;;
16119;SDS011;12670;53.502;10.252;2023-02-01T18:16:07;35.97;;;4.90;;
16119;SDS011;12670;53.502;10.252;2023-02-01T18:19:18;29.80;;;5.63;;
16119;SDS011;12670;53.502;10.252;2023-02-01T18:22:21;41.17;;;5.17;;
16119;SDS011;12670;53.502;10.252;2023-02-01T18:25:27;31.80;;;4.63;;